Hovedside
METAR-TAF:

METAR-TAF

Lufthavner :

Jeddah, Saudi-Arabia

breddegrad: 21-42N, lengdegrad: 039-11E, høyde over havet: 15 m

Gjeldene værobservasjon

Denne rapporten ble laget for 14 minutter siden, klokken 12:00 UTC
Vind 13 kt fra Vest-nordvest
Temperatur 30°C
Luftfuktighet 40%
Trykk 1014 hPa
Sikt 10 km eller mer
ingen skyer under 1500 m og ingen bygeskyer

METAR: OEJN 181200Z 29013KT CAVOK 30/15 Q1014 NOSIG

Tid: 15:14 (12:14 UTC)

Varsel

Denne rapporten ble laget for 1 time og 14 minutter siden, klokken 11:00 UTC
Varsel gyldig fra 18. klokken 12 UTC til 19. klokken 18 UTC
Vind 16 kt fra Nord-nordvest
Sikt 10 km eller mer
Få skyer i en høyde av 4000 ft
Blir
fra 18. klokken 18 UTC til 18. klokken 20 UTC
Vind 11 kt fra Nord

TAF: OEJN 181100Z 1812/1918 33016KT 9999 FEW040 BECMG 1818/1820 01011KT

Værobservasjoner og værvarsel for over 4000 flyplasser (METAR- og TAF-rapporter).

Tilgjengelige stasjoner er representert av de røde og gule prikkene på kartet.

Hold musepekeren over prikken for å se navnet på stasjonen.

Klikk så for å se værobservasjoner og -varsler.

For å forandre kartet kan du klikke på den grønne knappen med svart kryss for å zoome inn, på den grønne knappen med strek for å zoome ut, eller på de grønne pilene for å se tilstøtende kart.


METAR-TAF: